Cardedeu, Spain
Current Conditions -  °F | °C
As of 5:30 PM on Friday 24 Oct 2014 (Local Time) from LELL Reporting Station
Clear Clear  
Wind Chill: 24°   Ceiling: Unl
Heat Index: 24°   Visibility: 6mi
Dew Point: 11°   Wind: 6mph
Humidity: 44%   Direction: 120°ESE
Pressure: 29.97"   Gusts: NA
Location:  41.64°N, 2.36°E
Report Text: LELL 241530Z 12005KT 080V150 CAVOK 24/11 Q1015
Loading
Personal Weather Stations






























Interactive Weather Map
Tropical Storm Tracking
New forecast layout! Learn more

10-Day Weather Forecast

Advertisements
Track Severe Weather on mobile